createdAt,value
2023-08-06T00:01:08.028Z,2.40
2023-08-06T00:03:35.373Z,2.15
2023-08-06T00:06:02.908Z,2.10
2023-08-06T00:08:30.252Z,2.22
2023-08-06T00:10:57.491Z,2.17
2023-08-06T00:13:24.777Z,2.70
2023-08-06T00:15:52.011Z,2.13
2023-08-06T00:18:19.273Z,1.70
2023-08-06T00:20:46.569Z,2.53
2023-08-06T00:23:13.863Z,2.00
2023-08-06T00:25:41.235Z,2.10
2023-08-06T00:28:08.561Z,1.67
2023-08-06T00:30:35.856Z,2.13
2023-08-06T00:33:03.281Z,2.10
2023-08-06T00:35:31.176Z,1.80
2023-08-06T00:37:58.475Z,2.33
2023-08-06T00:40:25.766Z,1.80
2023-08-06T00:42:53.055Z,2.40
2023-08-06T00:45:20.385Z,2.05
2023-08-06T00:47:48.631Z,2.20
2023-08-06T00:50:17.249Z,2.00
2023-08-06T00:52:45.004Z,2.25
2023-08-06T00:55:12.354Z,2.15
2023-08-06T00:57:39.668Z,2.10
2023-08-06T01:00:07.786Z,2.22
2023-08-06T01:02:35.287Z,2.17
2023-08-06T01:05:02.589Z,1.83
2023-08-06T01:07:46.139Z,1.95
2023-08-06T01:10:46.598Z,1.95
2023-08-06T01:13:44.648Z,2.30
2023-08-06T01:16:15.330Z,2.00
2023-08-06T01:18:44.637Z,1.63
2023-08-06T01:21:12.406Z,2.20
2023-08-06T01:23:40.061Z,2.33
2023-08-06T01:26:29.056Z,2.08
2023-08-06T01:29:20.058Z,2.20
2023-08-06T01:31:52.077Z,2.13
2023-08-06T01:34:23.126Z,1.80
2023-08-06T01:36:52.290Z,2.08
2023-08-06T01:39:22.071Z,2.20
2023-08-06T01:41:50.145Z,1.90
2023-08-06T01:44:18.288Z,2.20
2023-08-06T01:46:45.658Z,1.95
2023-08-06T01:49:12.965Z,2.10
2023-08-06T01:51:40.275Z,1.70
2023-08-06T01:54:07.571Z,1.77
2023-08-06T01:56:34.879Z,2.60
2023-08-06T01:59:04.859Z,2.20
2023-08-06T02:01:32.846Z,1.90
2023-08-06T02:04:00.158Z,1.73
2023-08-06T02:06:27.473Z,2.13
2023-08-06T02:08:54.880Z,2.33
2023-08-06T02:11:22.190Z,2.10
2023-08-06T02:13:49.502Z,2.00
2023-08-06T02:16:19.926Z,2.22
2023-08-06T02:18:47.357Z,2.38
2023-08-06T02:21:14.649Z,1.55
2023-08-06T02:23:41.928Z,1.80
2023-08-06T02:26:09.242Z,2.17
2023-08-06T02:28:36.663Z,1.80
2023-08-06T02:31:04.296Z,1.77
2023-08-06T02:33:31.581Z,1.90
2023-08-06T02:36:04.730Z,2.08
2023-08-06T02:38:33.289Z,2.00
2023-08-06T02:41:03.002Z,2.03
2023-08-06T02:43:30.430Z,2.03
2023-08-06T02:46:03.886Z,2.40
2023-08-06T02:48:31.229Z,1.95
2023-08-06T02:51:00.394Z,2.13
2023-08-06T02:53:29.113Z,2.03
2023-08-06T02:55:56.839Z,2.20
2023-08-06T03:01:08.672Z,2.00
2023-08-06T03:03:51.790Z,1.90
2023-08-06T03:06:25.306Z,1.80
2023-08-06T03:08:55.507Z,2.20
2023-08-06T03:11:23.131Z,2.05
2023-08-06T03:13:55.260Z,1.88
2023-08-06T03:16:22.621Z,1.80
2023-08-06T03:18:49.911Z,1.80
2023-08-06T03:21:17.916Z,2.13
2023-08-06T03:23:49.165Z,2.10
2023-08-06T03:26:18.945Z,1.70
2023-08-06T03:28:46.867Z,2.15
2023-08-06T03:31:15.193Z,1.80
2023-08-06T03:33:45.721Z,2.00
2023-08-06T03:36:18.684Z,1.95
2023-08-06T03:38:46.137Z,1.80
2023-08-06T03:41:15.508Z,1.80
2023-08-06T03:43:42.919Z,2.05
2023-08-06T03:46:15.265Z,2.35
2023-08-06T03:48:42.626Z,2.13
2023-08-06T03:51:09.913Z,1.90
2023-08-06T03:53:39.660Z,1.98
2023-08-06T03:56:07.116Z,1.77
2023-08-06T03:58:35.180Z,2.05
2023-08-06T04:01:03.746Z,1.98
2023-08-06T04:03:43.003Z,1.70
2023-08-06T04:06:10.497Z,1.58
2023-08-06T04:08:38.194Z,1.90
2023-08-06T04:11:05.592Z,1.90
2023-08-06T04:13:32.845Z,1.70
2023-08-06T04:16:04.086Z,2.05
2023-08-06T04:18:32.793Z,1.63
2023-08-06T04:21:00.150Z,2.20
2023-08-06T04:23:27.526Z,2.03
2023-08-06T04:25:59.325Z,1.85
2023-08-06T04:28:30.916Z,1.80
2023-08-06T04:30:59.880Z,2.10
2023-08-06T04:33:27.937Z,1.70
2023-08-06T04:35:59.227Z,2.15
2023-08-06T04:38:28.059Z,2.00
2023-08-06T04:40:56.238Z,1.70
2023-08-06T04:43:25.200Z,1.75
2023-08-06T04:45:55.997Z,1.80
2023-08-06T04:48:23.965Z,1.92
2023-08-06T04:50:52.078Z,1.73
2023-08-06T04:53:19.583Z,2.00
2023-08-06T04:55:47.130Z,1.80
2023-08-06T04:58:14.863Z,1.63
2023-08-06T05:00:42.213Z,1.60
2023-08-06T05:03:09.568Z,1.60
2023-08-06T05:05:36.985Z,1.30
2023-08-06T05:08:04.436Z,1.70
2023-08-06T05:10:31.828Z,1.75
2023-08-06T05:12:59.168Z,1.55
2023-08-06T05:15:26.598Z,1.90
2023-08-06T05:17:54.026Z,1.67
2023-08-06T05:20:21.825Z,1.63
2023-08-06T05:22:49.137Z,1.73
2023-08-06T05:25:16.597Z,1.85
2023-08-06T05:27:43.942Z,1.70
2023-08-06T05:30:11.757Z,1.90
2023-08-06T05:32:39.195Z,2.10
2023-08-06T05:35:07.430Z,1.83
2023-08-06T05:37:35.160Z,1.80
2023-08-06T05:40:03.157Z,1.83
2023-08-06T05:42:30.554Z,1.63
2023-08-06T05:44:57.826Z,1.90
2023-08-06T05:47:25.184Z,1.60
2023-08-06T05:49:52.444Z,1.88
2023-08-06T05:52:19.733Z,1.50
2023-08-06T05:54:47.224Z,1.65
2023-08-06T05:57:14.498Z,1.77
2023-08-06T05:59:42.381Z,1.70
2023-08-06T06:02:09.727Z,1.30
2023-08-06T06:04:38.735Z,1.88
2023-08-06T06:07:06.149Z,2.00
2023-08-06T06:09:33.443Z,2.40
2023-08-06T06:12:00.806Z,1.90
2023-08-06T06:14:28.139Z,1.75
2023-08-06T06:16:55.492Z,2.08
2023-08-06T06:19:22.880Z,2.10
2023-08-06T06:21:50.196Z,2.08
2023-08-06T06:24:17.464Z,1.67
2023-08-06T06:26:44.726Z,1.70
2023-08-06T06:29:12.073Z,1.98
2023-08-06T06:31:39.471Z,1.70
2023-08-06T06:34:06.813Z,1.98
2023-08-06T06:36:34.082Z,2.22
2023-08-06T06:39:01.409Z,1.83
2023-08-06T06:41:30.687Z,1.92
2023-08-06T06:44:05.076Z,1.73
2023-08-06T06:46:32.367Z,1.85
2023-08-06T06:48:59.625Z,2.10
2023-08-06T06:51:26.923Z,1.88
2023-08-06T06:53:54.199Z,1.60
2023-08-06T06:56:21.617Z,1.98
2023-08-06T06:58:48.901Z,1.90
2023-08-06T07:01:16.197Z,1.75
2023-08-06T07:03:43.525Z,2.05
2023-08-06T07:06:10.883Z,1.95
2023-08-06T07:08:39.423Z,1.80
2023-08-06T07:11:07.656Z,2.20
2023-08-06T07:13:35.712Z,1.70
2023-08-06T07:16:03.387Z,2.17
2023-08-06T07:18:30.749Z,1.63
2023-08-06T07:20:58.076Z,1.90
2023-08-06T07:23:26.914Z,1.75
2023-08-06T07:25:54.746Z,1.60
2023-08-06T07:28:22.116Z,1.52
2023-08-06T07:30:49.485Z,1.60
2023-08-06T07:33:16.772Z,1.63
2023-08-06T07:35:44.590Z,1.73
2023-08-06T07:38:12.015Z,2.20
2023-08-06T07:40:40.217Z,1.80
2023-08-06T07:43:07.587Z,1.70
2023-08-06T07:45:36.765Z,1.88
2023-08-06T07:48:04.636Z,2.13
2023-08-06T07:50:32.218Z,1.65
2023-08-06T07:52:59.774Z,1.70
2023-08-06T07:55:27.335Z,1.73
2023-08-06T07:57:55.321Z,2.00
2023-08-06T08:00:22.892Z,1.88
2023-08-06T08:02:50.310Z,1.88
2023-08-06T08:05:17.652Z,1.95
2023-08-06T08:07:45.384Z,1.70
2023-08-06T08:10:12.910Z,1.70
2023-08-06T08:12:40.270Z,1.98
2023-08-06T08:15:07.956Z,1.73
2023-08-06T08:17:35.959Z,1.80
2023-08-06T08:20:04.062Z,2.08
2023-08-06T08:22:31.433Z,1.83
2023-08-06T08:24:58.763Z,1.60
2023-08-06T08:27:27.224Z,1.88
2023-08-06T08:29:54.479Z,1.80
2023-08-06T08:32:21.802Z,1.60
2023-08-06T08:34:49.150Z,1.70
2023-08-06T08:37:16.426Z,1.30
2023-08-06T08:39:43.860Z,1.50
2023-08-06T08:42:11.601Z,1.70
2023-08-06T08:44:41.035Z,1.75
2023-08-06T08:47:10.312Z,1.85
2023-08-06T08:49:38.594Z,1.70
2023-08-06T08:52:07.598Z,1.70
2023-08-06T08:54:36.155Z,1.85
2023-08-06T08:57:03.624Z,1.52
2023-08-06T08:59:31.018Z,1.50
2023-08-06T09:01:59.327Z,1.45
2023-08-06T09:04:32.901Z,1.73
2023-08-06T09:07:02.820Z,1.50
2023-08-06T09:09:34.685Z,1.80
2023-08-06T09:12:07.147Z,1.75
2023-08-06T09:14:34.522Z,1.92
2023-08-06T09:17:02.420Z,1.75
2023-08-06T09:19:29.853Z,1.58
2023-08-06T09:21:58.153Z,2.42
2023-08-06T09:24:27.146Z,1.60
2023-08-06T09:26:55.326Z,1.60
2023-08-06T09:29:22.626Z,1.40
2023-08-06T09:31:53.757Z,1.65
2023-08-06T09:34:23.247Z,1.60
2023-08-06T09:36:54.865Z,1.80
2023-08-06T09:39:32.148Z,1.70
2023-08-06T09:42:03.869Z,1.52
2023-08-06T09:44:32.881Z,1.98
2023-08-06T09:47:04.897Z,1.90
2023-08-06T09:49:43.454Z,2.25
2023-08-06T09:52:13.324Z,1.50
2023-08-06T09:54:40.803Z,1.50
2023-08-06T09:57:12.298Z,1.60
2023-08-06T09:59:40.247Z,1.90
2023-08-06T10:02:14.230Z,1.80
2023-08-06T10:04:44.304Z,1.83
2023-08-06T10:07:13.405Z,1.58
2023-08-06T10:09:40.680Z,1.50
2023-08-06T10:12:08.453Z,1.48
2023-08-06T10:14:38.856Z,1.48
2023-08-06T10:17:06.491Z,1.58
2023-08-06T10:19:34.591Z,1.35
2023-08-06T10:22:15.441Z,1.23
2023-08-06T10:24:55.578Z,1.60
2023-08-06T10:27:29.083Z,1.88
2023-08-06T10:29:58.768Z,1.95
2023-08-06T10:32:53.676Z,1.80
2023-08-06T10:35:45.030Z,1.50
2023-08-06T10:38:14.274Z,1.50
2023-08-06T10:41:02.473Z,1.50
2023-08-06T10:43:40.786Z,1.70
2023-08-06T10:46:12.753Z,1.40
2023-08-06T10:48:46.395Z,1.67
2023-08-06T10:51:15.912Z,1.58
2023-08-06T10:53:48.386Z,1.55
2023-08-06T10:56:16.983Z,1.52
2023-08-06T10:58:45.835Z,1.73
2023-08-06T11:01:13.603Z,1.63
2023-08-06T11:03:41.479Z,1.38
2023-08-06T11:06:09.479Z,1.48
2023-08-06T11:08:38.292Z,1.50
2023-08-06T11:11:16.411Z,1.90
2023-08-06T11:13:47.762Z,1.33
2023-08-06T11:16:24.465Z,1.40
2023-08-06T11:18:52.152Z,1.40
2023-08-06T11:21:23.210Z,1.73
2023-08-06T11:23:50.892Z,1.13
2023-08-06T11:26:25.100Z,1.33
2023-08-06T11:28:52.581Z,1.65
2023-08-06T11:31:21.513Z,2.05
2023-08-06T11:33:52.127Z,1.30
2023-08-06T11:36:33.801Z,1.30
2023-08-06T11:39:02.215Z,1.73
2023-08-06T11:41:30.551Z,1.33
2023-08-06T11:43:58.621Z,1.60
2023-08-06T11:46:26.587Z,1.20
2023-08-06T11:48:58.298Z,1.30
2023-08-06T11:51:29.499Z,1.30
2023-08-06T11:53:58.457Z,1.33
2023-08-06T11:56:27.580Z,1.30
2023-08-06T11:58:56.131Z,1.40
2023-08-06T12:01:23.628Z,1.20
2023-08-06T12:03:51.127Z,1.50
2023-08-06T12:06:18.665Z,1.10
2023-08-06T12:08:46.126Z,1.38
2023-08-06T12:11:13.439Z,1.10
2023-08-06T12:13:40.751Z,1.15
2023-08-06T12:16:08.062Z,1.30
2023-08-06T12:18:35.428Z,1.50
2023-08-06T12:21:02.758Z,1.25
2023-08-06T12:23:30.245Z,1.30
2023-08-06T12:25:57.644Z,1.20
2023-08-06T12:28:24.994Z,1.20
2023-08-06T12:30:55.753Z,1.35
2023-08-06T12:33:23.156Z,1.10
2023-08-06T12:35:50.684Z,1.17
2023-08-06T12:38:18.105Z,1.33
2023-08-06T12:40:45.642Z,1.20
2023-08-06T12:43:13.073Z,1.10
2023-08-06T12:45:40.488Z,1.25
2023-08-06T12:48:07.942Z,1.00
2023-08-06T12:50:35.786Z,1.20
2023-08-06T12:53:03.476Z,1.23
2023-08-06T12:55:33.318Z,0.95
2023-08-06T12:58:01.053Z,1.40
2023-08-06T13:00:28.596Z,1.10
2023-08-06T13:02:56.198Z,1.27
2023-08-06T13:05:23.647Z,1.10
2023-08-06T13:07:51.236Z,1.20
2023-08-06T13:10:18.994Z,1.20
2023-08-06T13:12:46.528Z,1.30
2023-08-06T13:15:15.629Z,1.10
2023-08-06T13:17:43.211Z,1.35
2023-08-06T13:20:11.286Z,1.10
2023-08-06T13:22:38.946Z,1.27
2023-08-06T13:25:06.448Z,1.10
2023-08-06T13:27:33.722Z,1.30
2023-08-06T13:30:00.988Z,1.30
2023-08-06T13:32:28.525Z,1.33
2023-08-06T13:34:55.864Z,1.27
2023-08-06T13:37:23.167Z,1.20
2023-08-06T13:39:50.446Z,1.40
2023-08-06T13:42:17.710Z,1.40
2023-08-06T13:44:44.948Z,1.10
2023-08-06T13:47:12.449Z,1.40
2023-08-06T13:49:39.754Z,1.20
2023-08-06T13:52:20.228Z,1.20
2023-08-06T13:54:49.642Z,1.17
2023-08-06T13:57:18.584Z,1.30
2023-08-06T13:59:46.213Z,1.30
2023-08-06T14:02:13.633Z,1.20
2023-08-06T14:04:41.276Z,1.63
2023-08-06T14:07:08.803Z,1.10
2023-08-06T14:09:36.241Z,1.23
2023-08-06T14:12:04.302Z,1.00
2023-08-06T14:14:31.706Z,1.30
2023-08-06T14:16:59.522Z,1.30
2023-08-06T14:19:27.093Z,1.10
2023-08-06T14:21:54.713Z,1.25
2023-08-06T14:24:22.173Z,0.88
2023-08-06T14:26:49.582Z,1.33
2023-08-06T14:29:17.004Z,1.70
2023-08-06T14:31:44.878Z,1.13
2023-08-06T14:34:12.187Z,1.10
2023-08-06T14:36:39.493Z,1.10
2023-08-06T14:39:07.000Z,1.20
2023-08-06T14:41:34.276Z,1.05
2023-08-06T14:44:01.850Z,1.30
2023-08-06T14:46:29.236Z,1.23
2023-08-06T14:48:56.521Z,1.10
2023-08-06T14:51:24.263Z,1.30
2023-08-06T14:53:51.761Z,1.30
2023-08-06T14:56:19.065Z,1.20
2023-08-06T14:58:46.388Z,1.10
2023-08-06T15:01:14.051Z,1.20
2023-08-06T15:03:41.494Z,1.42
2023-08-06T15:06:09.025Z,1.17
2023-08-06T15:08:36.520Z,1.23
2023-08-06T15:11:04.140Z,1.20
2023-08-06T15:13:31.667Z,1.20
2023-08-06T15:15:59.225Z,1.20
2023-08-06T15:18:26.547Z,1.23
2023-08-06T15:20:53.995Z,1.10
2023-08-06T15:23:21.330Z,1.25
2023-08-06T15:25:48.761Z,1.00
2023-08-06T15:28:16.557Z,1.25
2023-08-06T15:30:51.828Z,1.42
2023-08-06T15:33:19.994Z,1.08
2023-08-06T15:35:48.057Z,1.00
2023-08-06T15:38:15.542Z,1.00
2023-08-06T15:40:42.847Z,1.00
2023-08-06T15:43:10.153Z,1.23
2023-08-06T15:45:37.544Z,1.10
2023-08-06T15:48:05.192Z,0.80
2023-08-06T15:50:32.548Z,1.10
2023-08-06T15:52:59.922Z,1.20
2023-08-06T15:55:27.240Z,0.90
2023-08-06T15:57:54.549Z,1.30
2023-08-06T16:00:21.956Z,1.48
2023-08-06T16:02:49.291Z,1.27
2023-08-06T16:05:16.799Z,0.93
2023-08-06T16:07:44.250Z,1.10
2023-08-06T16:10:12.032Z,1.23
2023-08-06T16:12:39.461Z,1.00
2023-08-06T16:15:07.578Z,1.75
2023-08-06T16:17:34.818Z,0.98
2023-08-06T16:20:02.092Z,1.23
2023-08-06T16:22:29.476Z,1.40
2023-08-06T16:24:56.734Z,1.08
2023-08-06T16:27:24.087Z,1.30
2023-08-06T16:29:51.547Z,1.23
2023-08-06T16:32:18.947Z,1.02
2023-08-06T16:34:46.374Z,1.02
2023-08-06T16:37:14.247Z,1.15
2023-08-06T16:39:41.630Z,1.33
2023-08-06T16:42:09.080Z,1.05
2023-08-06T16:44:36.397Z,1.25
2023-08-06T16:47:04.475Z,1.08
2023-08-06T16:49:31.740Z,1.30
2023-08-06T16:51:59.104Z,1.13
2023-08-06T16:54:26.359Z,1.23
2023-08-06T16:56:54.176Z,1.10
2023-08-06T16:59:21.608Z,1.00
2023-08-06T17:01:48.936Z,1.20
2023-08-06T17:04:16.419Z,1.27
2023-08-06T17:06:43.738Z,1.10
2023-08-06T17:09:11.168Z,1.05
2023-08-06T17:11:38.528Z,1.30
2023-08-06T17:14:05.855Z,1.45
2023-08-06T17:16:33.176Z,1.02
2023-08-06T17:19:00.530Z,1.10
2023-08-06T17:21:29.583Z,1.05
2023-08-06T17:23:56.862Z,1.35
2023-08-06T17:26:24.532Z,1.15
2023-08-06T17:28:52.098Z,1.02
2023-08-06T17:31:19.666Z,1.30
2023-08-06T17:33:46.960Z,1.05
2023-08-06T17:36:14.272Z,1.20
2023-08-06T17:38:41.577Z,1.05
2023-08-06T17:41:08.882Z,1.17
2023-08-06T17:43:36.391Z,1.30
2023-08-06T17:46:03.665Z,1.05
2023-08-06T17:48:31.362Z,1.10
2023-08-06T17:50:58.800Z,1.10
2023-08-06T17:53:26.218Z,1.00
2023-08-06T17:55:53.585Z,0.93
2023-08-06T17:58:20.838Z,1.20
2023-08-06T18:00:50.975Z,1.00
2023-08-06T18:03:18.886Z,1.13
2023-08-06T18:05:46.469Z,1.00
2023-08-06T18:08:13.826Z,1.15
2023-08-06T18:10:41.232Z,1.13
2023-08-06T18:13:10.169Z,1.13
2023-08-06T18:15:37.823Z,1.00
2023-08-06T18:18:05.204Z,1.00
2023-08-06T18:20:32.601Z,1.17
2023-08-06T18:22:59.896Z,0.90
2023-08-06T18:25:27.288Z,1.05
2023-08-06T18:27:54.824Z,0.80
2023-08-06T18:30:22.117Z,1.00
2023-08-06T18:32:49.843Z,1.08
2023-08-06T18:35:17.220Z,1.30
2023-08-06T18:37:44.520Z,0.88
2023-08-06T18:40:12.202Z,1.20
2023-08-06T18:42:42.709Z,0.90
2023-08-06T18:45:11.216Z,1.02
2023-08-06T18:47:38.534Z,0.85
2023-08-06T18:50:06.478Z,1.10
2023-08-06T18:52:33.769Z,0.90
2023-08-06T18:55:01.145Z,1.00
2023-08-06T18:57:30.786Z,1.20
2023-08-06T18:59:59.467Z,0.95
2023-08-06T19:02:26.976Z,0.90
2023-08-06T19:04:55.616Z,1.05
2023-08-06T19:07:23.558Z,1.33
2023-08-06T19:09:51.375Z,1.10
2023-08-06T19:12:21.898Z,0.98
2023-08-06T19:14:49.353Z,1.00
2023-08-06T19:17:16.810Z,1.02
2023-08-06T19:19:44.963Z,0.90
2023-08-06T19:22:12.575Z,0.90
2023-08-06T19:24:41.232Z,1.33
2023-08-06T19:27:09.090Z,1.17
2023-08-06T19:29:36.744Z,1.05
2023-08-06T19:32:06.946Z,1.10
2023-08-06T19:34:37.578Z,1.02
2023-08-06T19:37:05.138Z,1.10
2023-08-06T19:39:32.591Z,0.95
2023-08-06T19:41:59.860Z,1.08
2023-08-06T19:44:27.406Z,1.17
2023-08-06T19:46:54.666Z,1.00
2023-08-06T19:49:22.049Z,0.90
2023-08-06T19:51:49.373Z,1.40
2023-08-06T19:54:17.269Z,1.00
2023-08-06T19:56:44.864Z,0.95
2023-08-06T19:59:12.202Z,1.33
2023-08-06T20:01:39.577Z,0.95
2023-08-06T20:04:07.021Z,1.35
2023-08-06T20:06:34.346Z,1.15
2023-08-06T20:09:01.766Z,0.85
2023-08-06T20:11:29.324Z,1.10
2023-08-06T20:13:56.569Z,0.80
2023-08-06T20:16:23.907Z,1.15
2023-08-06T20:18:51.382Z,1.20
2023-08-06T20:21:19.167Z,1.02
2023-08-06T20:23:46.610Z,0.93
2023-08-06T20:26:14.151Z,1.05
2023-08-06T20:28:41.466Z,1.08
2023-08-06T20:31:08.865Z,1.05
2023-08-06T20:33:36.829Z,0.90
2023-08-06T20:36:04.389Z,1.15
2023-08-06T20:38:31.774Z,1.02
2023-08-06T20:40:59.347Z,1.02
2023-08-06T20:43:26.821Z,1.00
2023-08-06T20:45:55.742Z,0.88
2023-08-06T20:48:23.678Z,0.95
2023-08-06T20:50:51.818Z,1.10
2023-08-06T20:53:19.643Z,1.17
2023-08-06T20:55:46.923Z,0.90
2023-08-06T20:58:14.604Z,1.08
2023-08-06T21:00:43.121Z,1.35
2023-08-06T21:03:10.605Z,1.00
2023-08-06T21:05:37.897Z,0.93
2023-08-06T21:08:05.240Z,1.00
2023-08-06T21:10:32.516Z,1.15
2023-08-06T21:13:00.038Z,0.80
2023-08-06T21:15:27.329Z,0.80
2023-08-06T21:17:54.704Z,0.93
2023-08-06T21:20:22.012Z,1.02
2023-08-06T21:22:49.693Z,0.98
2023-08-06T21:25:17.072Z,1.10
2023-08-06T21:27:48.815Z,1.20
2023-08-06T21:30:16.543Z,1.20
2023-08-06T21:32:43.871Z,1.20
2023-08-06T21:35:11.918Z,1.20
2023-08-06T21:37:39.515Z,1.15
2023-08-06T21:40:07.478Z,1.13
2023-08-06T21:42:34.810Z,1.77
2023-08-06T21:45:03.158Z,0.93
2023-08-06T21:47:30.474Z,1.08
2023-08-06T21:49:57.761Z,1.10
2023-08-06T21:52:25.049Z,1.30
2023-08-06T21:54:52.307Z,1.02
2023-08-06T21:57:19.703Z,1.15
2023-08-06T21:59:47.140Z,1.35
2023-08-06T22:02:14.527Z,1.20
2023-08-06T22:04:41.935Z,1.30
2023-08-06T22:07:09.221Z,1.60
2023-08-06T22:09:36.497Z,1.20
2023-08-06T22:12:04.051Z,1.10
2023-08-06T22:14:31.309Z,1.23
2023-08-06T22:16:58.809Z,1.10
2023-08-06T22:19:26.123Z,1.25
2023-08-06T22:21:53.734Z,1.77
2023-08-06T22:24:21.215Z,1.17
2023-08-06T22:26:48.478Z,1.67
2023-08-06T22:29:15.960Z,1.50
2023-08-06T22:31:43.271Z,1.23
2023-08-06T22:34:10.536Z,1.30
2023-08-06T22:36:37.858Z,1.40
2023-08-06T22:39:05.180Z,1.40
2023-08-06T22:41:32.528Z,1.35
2023-08-06T22:43:59.806Z,1.40
2023-08-06T22:46:27.276Z,1.65
2023-08-06T22:48:54.629Z,1.15
2023-08-06T22:51:24.138Z,1.30
2023-08-06T22:53:51.459Z,1.20
2023-08-06T22:56:18.782Z,1.35
2023-08-06T22:58:46.908Z,1.40
2023-08-06T23:01:14.211Z,1.48
2023-08-06T23:03:41.701Z,1.38
2023-08-06T23:06:09.898Z,1.85
2023-08-06T23:08:37.194Z,0.88
2023-08-06T23:11:04.584Z,1.40
2023-08-06T23:13:31.846Z,1.67
2023-08-06T23:15:59.190Z,1.50
2023-08-06T23:18:26.454Z,1.55
2023-08-06T23:20:53.708Z,2.03
2023-08-06T23:23:20.977Z,1.15
2023-08-06T23:25:48.227Z,1.50
2023-08-06T23:28:15.488Z,1.80
2023-08-06T23:30:47.163Z,1.63
2023-08-06T23:33:14.437Z,1.77
2023-08-06T23:35:41.751Z,2.10
2023-08-06T23:38:09.090Z,1.60
2023-08-06T23:40:36.376Z,1.73
2023-08-06T23:43:03.682Z,1.40
2023-08-06T23:45:31.016Z,1.83
2023-08-06T23:47:58.338Z,1.48
2023-08-06T23:50:26.067Z,1.30
2023-08-06T23:52:53.354Z,1.50
2023-08-06T23:55:20.671Z,1.20
2023-08-06T23:57:47.922Z,1.52
